createdAt,value
2022-11-16T00:00:04.291Z,100898.03
2022-11-16T00:00:22.078Z,100907.94
2022-11-16T00:00:46.900Z,100903.38
2022-11-16T00:01:01.170Z,100907.00
2022-11-16T00:01:15.935Z,100898.25
2022-11-16T00:01:31.907Z,100900.91
2022-11-16T00:01:45.149Z,100904.53
2022-11-16T00:01:58.027Z,100901.84
2022-11-16T00:02:11.252Z,100904.53
2022-11-16T00:02:24.093Z,100901.00
2022-11-16T00:02:36.790Z,100901.94
2022-11-16T00:02:51.886Z,100908.16
2022-11-16T00:03:06.226Z,100896.63
2022-11-16T00:03:18.858Z,100894.94
2022-11-16T00:03:32.044Z,100907.28
2022-11-16T00:03:44.782Z,100906.44
2022-11-16T00:03:59.884Z,100905.59
2022-11-16T00:04:13.527Z,100901.94
2022-11-16T00:04:26.153Z,100903.78
2022-11-16T00:04:39.112Z,100897.69
2022-11-16T00:04:51.752Z,100900.34
2022-11-16T00:05:05.016Z,100895.03
2022-11-16T00:05:19.759Z,100896.00
2022-11-16T00:05:34.664Z,100896.00
2022-11-16T00:05:47.399Z,100898.75
2022-11-16T00:06:02.618Z,100896.00
2022-11-16T00:06:15.601Z,100900.47
2022-11-16T00:06:29.318Z,100902.16
2022-11-16T00:06:41.964Z,100896.94
2022-11-16T00:06:54.616Z,100899.50
2022-11-16T00:07:07.537Z,100900.34
2022-11-16T00:07:21.355Z,100899.41
2022-11-16T00:07:34.054Z,100897.69
2022-11-16T00:07:46.671Z,100897.69
2022-11-16T00:07:59.229Z,100903.00
2022-11-16T00:08:11.775Z,100897.69
2022-11-16T00:08:24.646Z,100897.69
2022-11-16T00:08:39.287Z,100896.00
2022-11-16T00:09:14.515Z,100894.28
2022-11-16T00:09:29.750Z,100893.34
2022-11-16T00:09:42.324Z,100896.00
2022-11-16T00:09:54.907Z,100897.69
2022-11-16T00:10:08.412Z,100888.84
2022-11-16T00:10:21.214Z,100886.28
2022-11-16T00:10:33.799Z,100894.28
2022-11-16T00:10:46.622Z,100884.50
2022-11-16T00:11:05.438Z,100879.25
2022-11-16T00:11:19.143Z,100897.69
2022-11-16T00:11:33.454Z,100895.03
2022-11-16T00:11:46.372Z,100892.34
2022-11-16T00:12:00.893Z,100888.00
2022-11-16T00:12:13.539Z,100890.66
2022-11-16T00:12:26.148Z,100890.66
2022-11-16T00:12:39.620Z,100889.69
2022-11-16T00:12:52.242Z,100888.84
2022-11-16T00:13:05.818Z,100887.03
2022-11-16T00:13:18.535Z,100890.66
2022-11-16T00:13:32.349Z,100888.09
2022-11-16T00:13:45.003Z,100884.59
2022-11-16T00:13:57.574Z,100888.94
2022-11-16T00:14:10.336Z,100888.94
2022-11-16T00:14:26.309Z,100886.41
2022-11-16T00:14:38.897Z,100882.78
2022-11-16T00:14:51.791Z,100886.28
2022-11-16T00:15:06.977Z,100881.94
2022-11-16T00:15:19.823Z,100886.28
2022-11-16T00:15:32.395Z,100882.78
2022-11-16T00:15:55.429Z,100891.72
2022-11-16T00:16:09.259Z,100884.59
2022-11-16T00:16:21.912Z,100882.78
2022-11-16T00:16:34.726Z,100886.28
2022-11-16T00:16:47.544Z,100879.25
2022-11-16T00:17:00.867Z,100877.44
2022-11-16T00:17:14.427Z,100882.78
2022-11-16T00:17:27.002Z,100885.44
2022-11-16T00:17:39.619Z,100880.09
2022-11-16T00:17:52.215Z,100881.94
2022-11-16T00:18:04.810Z,100881.94
2022-11-16T00:18:17.399Z,100884.59
2022-11-16T00:18:30.868Z,100883.75
2022-11-16T00:18:44.789Z,100887.25
2022-11-16T00:18:58.915Z,100885.44
2022-11-16T00:19:12.213Z,100889.06
2022-11-16T00:19:25.675Z,100886.41
2022-11-16T00:19:38.307Z,100885.53
2022-11-16T00:19:52.191Z,100880.19
2022-11-16T00:20:05.777Z,100884.59
2022-11-16T00:20:18.465Z,100882.78
2022-11-16T00:20:31.023Z,100884.59
2022-11-16T00:20:43.611Z,100879.44
2022-11-16T00:20:56.418Z,100881.09
2022-11-16T00:21:09.155Z,100882.88
2022-11-16T00:21:21.734Z,100877.53
2022-11-16T00:21:35.797Z,100886.41
2022-11-16T00:21:48.440Z,100884.69
2022-11-16T00:22:01.031Z,100881.09
2022-11-16T00:22:13.699Z,100885.53
2022-11-16T00:22:26.292Z,100880.19
2022-11-16T00:22:38.885Z,100881.19
2022-11-16T00:22:51.455Z,100883.84
2022-11-16T00:23:05.040Z,100879.44
2022-11-16T00:23:18.009Z,100882.13
2022-11-16T00:23:30.574Z,100879.44
2022-11-16T00:23:43.133Z,100880.41
2022-11-16T00:23:55.998Z,100882.13
2022-11-16T00:24:13.467Z,100883.84
2022-11-16T00:24:26.065Z,100883.00
2022-11-16T00:24:38.947Z,100884.69
2022-11-16T00:24:51.528Z,100885.66
2022-11-16T00:25:04.868Z,100883.00
2022-11-16T00:25:17.455Z,100890.22
2022-11-16T00:25:31.011Z,100886.50
2022-11-16T00:25:43.966Z,100876.78
2022-11-16T00:26:01.596Z,100880.41
2022-11-16T00:26:14.240Z,100884.78
2022-11-16T00:26:26.892Z,100877.66
2022-11-16T00:26:42.654Z,100881.19
2022-11-16T00:26:56.265Z,100884.78
2022-11-16T00:27:08.938Z,100886.50
2022-11-16T00:27:21.531Z,100887.44
2022-11-16T00:27:34.108Z,100878.50
2022-11-16T00:27:46.711Z,100884.78
2022-11-16T00:27:59.434Z,100879.56
2022-11-16T00:28:13.056Z,100883.09
2022-11-16T00:28:25.638Z,100881.28
2022-11-16T00:28:38.378Z,100882.13
2022-11-16T00:28:52.778Z,100884.06
2022-11-16T00:29:05.363Z,100889.25
2022-11-16T00:29:20.690Z,100879.56
2022-11-16T00:29:34.254Z,100883.19
2022-11-16T00:29:46.937Z,100891.94
2022-11-16T00:29:59.732Z,100884.06
2022-11-16T00:30:13.116Z,100886.72
2022-11-16T00:30:25.692Z,100890.09
2022-11-16T00:30:38.928Z,100882.13
2022-11-16T00:30:58.504Z,100887.44
2022-11-16T00:31:11.618Z,100886.59
2022-11-16T00:31:25.894Z,100883.09
2022-11-16T00:31:38.481Z,100883.00
2022-11-16T00:31:52.425Z,100884.78
2022-11-16T00:32:05.272Z,100883.00
2022-11-16T00:32:17.883Z,100889.16
2022-11-16T00:32:31.385Z,100883.75
2022-11-16T00:32:44.946Z,100888.19
2022-11-16T00:33:00.404Z,100884.50
2022-11-16T00:33:15.510Z,100889.81
2022-11-16T00:33:28.490Z,100888.94
2022-11-16T00:33:41.353Z,100886.19
2022-11-16T00:33:53.910Z,100885.34
2022-11-16T00:34:06.508Z,100886.19
2022-11-16T00:34:19.894Z,100889.81
2022-11-16T00:34:33.606Z,100888.94
2022-11-16T00:34:46.184Z,100891.53
2022-11-16T00:34:58.762Z,100890.66
2022-11-16T00:35:11.327Z,100888.84
2022-11-16T00:35:23.923Z,100885.34
2022-11-16T00:35:39.529Z,100891.53
2022-11-16T00:35:52.122Z,100891.53
2022-11-16T00:36:06.440Z,100888.94
2022-11-16T00:36:19.441Z,100885.34
2022-11-16T00:36:33.019Z,100885.34
2022-11-16T00:36:45.933Z,100892.34
2022-11-16T00:36:58.523Z,100890.66
2022-11-16T00:37:11.110Z,100887.03
2022-11-16T00:37:23.703Z,100888.84
2022-11-16T00:37:36.285Z,100886.28
2022-11-16T00:37:50.041Z,100887.91
2022-11-16T00:38:02.952Z,100886.19
2022-11-16T00:38:15.791Z,100888.84
2022-11-16T00:38:28.707Z,100886.19
2022-11-16T00:38:42.092Z,100889.81
2022-11-16T00:38:54.718Z,100888.84
2022-11-16T00:39:07.306Z,100886.19
2022-11-16T00:39:21.210Z,100884.38
2022-11-16T00:39:34.405Z,100886.19
2022-11-16T00:39:46.939Z,100889.69
2022-11-16T00:39:59.514Z,100878.09
2022-11-16T00:40:12.823Z,100884.38
2022-11-16T00:40:25.418Z,100892.34
2022-11-16T00:40:37.993Z,100881.72
2022-11-16T00:40:50.609Z,100875.53
2022-11-16T00:41:04.707Z,100883.44
2022-11-16T00:41:17.286Z,100877.25
2022-11-16T00:41:29.887Z,100870.31
2022-11-16T00:41:44.936Z,100877.25
2022-11-16T00:41:57.612Z,100878.09
2022-11-16T00:42:10.178Z,100872.78
2022-11-16T00:42:23.750Z,100878.09
2022-11-16T00:42:36.623Z,100879.78
2022-11-16T00:42:49.200Z,100878.09
2022-11-16T00:43:01.786Z,100878.09
2022-11-16T00:43:14.376Z,100878.09
2022-11-16T00:43:27.707Z,100881.63
2022-11-16T00:43:40.295Z,100872.78
2022-11-16T00:43:53.938Z,100874.47
2022-11-16T00:44:06.816Z,100873.63
2022-11-16T00:44:19.398Z,100882.38
2022-11-16T00:44:31.998Z,100877.97
2022-11-16T00:44:44.568Z,100877.13
2022-11-16T00:44:57.135Z,100880.63
2022-11-16T00:45:10.679Z,100885.97
2022-11-16T00:45:23.285Z,100879.78
2022-11-16T00:45:38.503Z,100884.28
2022-11-16T00:45:51.094Z,100881.72
2022-11-16T00:46:03.887Z,100876.38
2022-11-16T00:46:16.654Z,100874.69
2022-11-16T00:46:29.246Z,100879.16
2022-11-16T00:46:41.930Z,100883.53
2022-11-16T00:46:54.560Z,100883.63
2022-11-16T00:47:08.463Z,100879.16
2022-11-16T00:47:22.461Z,100880.00
2022-11-16T00:47:35.062Z,100882.69
2022-11-16T00:47:47.635Z,100872.97
2022-11-16T00:48:00.761Z,100882.69
2022-11-16T00:48:13.631Z,100880.00
2022-11-16T00:48:26.598Z,100876.59
2022-11-16T00:48:40.209Z,100885.34
2022-11-16T00:48:53.038Z,100880.00
2022-11-16T00:49:05.816Z,100880.88
2022-11-16T00:49:18.443Z,100872.97
2022-11-16T00:49:31.038Z,100877.34
2022-11-16T00:49:43.613Z,100881.72
2022-11-16T00:49:57.184Z,100884.38
2022-11-16T00:50:10.020Z,100880.00
2022-11-16T00:50:22.580Z,100879.16
2022-11-16T00:50:35.193Z,100877.34
2022-11-16T00:50:47.922Z,100874.69
2022-11-16T00:51:00.529Z,100876.59
2022-11-16T00:51:13.219Z,100877.44
2022-11-16T00:51:26.854Z,100877.44
2022-11-16T00:51:39.448Z,100879.25
2022-11-16T00:51:52.289Z,100880.19
2022-11-16T00:52:04.984Z,100883.84
2022-11-16T00:52:17.610Z,100874.13
2022-11-16T00:52:30.379Z,100873.28
2022-11-16T00:52:43.991Z,100877.66
2022-11-16T00:52:56.554Z,100875.00
2022-11-16T00:53:12.955Z,100875.00
2022-11-16T00:53:25.550Z,100868.78
2022-11-16T00:53:38.130Z,100879.25
2022-11-16T00:53:50.695Z,100873.19
2022-11-16T00:54:05.764Z,100874.88
2022-11-16T00:54:18.347Z,100870.53
2022-11-16T00:54:30.911Z,100875.75
2022-11-16T00:54:43.493Z,100880.34
2022-11-16T00:54:56.137Z,100877.66
2022-11-16T00:55:08.822Z,100875.84
2022-11-16T00:55:21.407Z,100879.34
2022-11-16T00:55:34.626Z,100880.41
2022-11-16T00:55:47.945Z,100878.59
2022-11-16T00:56:01.700Z,100877.75
2022-11-16T00:56:14.551Z,100879.44
2022-11-16T00:56:27.117Z,100878.59
2022-11-16T00:56:40.404Z,100882.13
2022-11-16T00:56:54.372Z,100882.13
2022-11-16T00:57:06.956Z,100883.00
2022-11-16T00:57:19.523Z,100882.13
2022-11-16T00:57:32.073Z,100882.13
2022-11-16T00:57:45.647Z,100882.13
2022-11-16T00:57:58.240Z,100881.28
2022-11-16T00:58:11.143Z,100880.41
2022-11-16T00:58:24.090Z,100882.13
2022-11-16T00:58:36.903Z,100877.75
2022-11-16T00:58:49.769Z,100880.41
2022-11-16T00:59:02.356Z,100878.59
2022-11-16T00:59:15.974Z,100879.44
2022-11-16T00:59:28.546Z,100875.09
2022-11-16T00:59:41.138Z,100885.66
2022-11-16T00:59:53.715Z,100883.00
2022-11-16T01:00:08.449Z,100882.13
2022-11-16T01:00:21.315Z,100882.13
2022-11-16T01:00:34.882Z,100878.50
2022-11-16T01:00:47.761Z,100880.41
2022-11-16T01:01:04.945Z,100876.78
2022-11-16T01:01:18.991Z,100883.94
2022-11-16T01:01:31.661Z,100879.44
2022-11-16T01:01:44.306Z,100878.50
2022-11-16T01:01:57.903Z,100887.25
2022-11-16T01:02:10.575Z,100880.19
2022-11-16T01:02:23.194Z,100882.88
2022-11-16T01:02:35.764Z,100886.28
2022-11-16T01:02:48.334Z,100885.53
2022-11-16T01:03:00.912Z,100887.16
2022-11-16T01:03:13.634Z,100881.84
2022-11-16T01:03:27.223Z,100887.16
2022-11-16T01:03:40.297Z,100896.00
2022-11-16T01:03:52.885Z,100887.03
2022-11-16T01:04:05.483Z,100892.34
2022-11-16T01:04:18.031Z,100890.56
2022-11-16T01:04:30.591Z,100894.09
2022-11-16T01:04:43.195Z,100896.75
2022-11-16T01:04:56.794Z,100894.94
2022-11-16T01:05:10.358Z,100894.09
2022-11-16T01:05:23.563Z,100895.78
2022-11-16T01:05:36.346Z,100892.28
2022-11-16T01:05:48.920Z,100895.69
2022-11-16T01:06:02.625Z,100894.84
2022-11-16T01:06:16.382Z,100893.03
2022-11-16T01:06:29.995Z,100897.50
2022-11-16T01:06:42.555Z,100894.72
2022-11-16T01:06:55.180Z,100894.84
2022-11-16T01:07:07.875Z,100896.53
2022-11-16T01:07:20.570Z,100903.59
2022-11-16T01:07:34.773Z,100903.59
2022-11-16T01:07:47.391Z,100902.59
2022-11-16T01:08:00.135Z,100906.13
2022-11-16T01:08:13.740Z,100906.13
2022-11-16T01:08:26.309Z,100903.47
2022-11-16T01:08:40.499Z,100899.94
2022-11-16T01:08:53.151Z,100907.84
2022-11-16T01:09:05.742Z,100911.34
2022-11-16T01:09:18.333Z,100899.00
2022-11-16T01:09:30.925Z,100906.03
2022-11-16T01:09:44.485Z,100905.09
2022-11-16T01:09:57.329Z,100906.88
2022-11-16T01:10:12.581Z,100907.00
2022-11-16T01:10:27.259Z,100905.09
2022-11-16T01:10:40.797Z,100906.88
2022-11-16T01:10:53.378Z,100906.88
2022-11-16T01:11:21.985Z,100905.19
2022-11-16T01:11:52.784Z,100911.34
2022-11-16T01:12:09.596Z,100907.75
2022-11-16T01:12:22.146Z,100907.75
2022-11-16T01:12:35.195Z,100907.75
2022-11-16T01:12:48.762Z,100906.03
2022-11-16T01:13:02.350Z,100910.41
2022-11-16T01:13:14.866Z,100910.28
2022-11-16T01:13:27.629Z,100906.78
2022-11-16T01:13:40.174Z,100908.59
2022-11-16T01:13:53.258Z,100912.09
2022-11-16T01:14:08.522Z,100913.94
2022-11-16T01:14:21.060Z,100905.94
2022-11-16T01:14:33.906Z,100917.44
2022-11-16T01:14:47.566Z,100911.13
2022-11-16T01:15:01.254Z,100909.44
2022-11-16T01:15:14.234Z,100915.63
2022-11-16T01:15:28.194Z,100912.09
2022-11-16T01:15:47.624Z,100911.34
2022-11-16T01:16:00.196Z,100910.50
2022-11-16T01:16:14.756Z,100910.50
2022-11-16T01:16:27.333Z,100917.66
2022-11-16T01:16:39.906Z,100915.84
2022-11-16T01:16:53.438Z,100913.25
2022-11-16T01:17:06.526Z,100910.59
2022-11-16T01:17:19.219Z,100910.50
2022-11-16T01:17:31.868Z,100913.25
2022-11-16T01:17:44.920Z,100910.59
2022-11-16T01:17:57.754Z,100908.78
2022-11-16T01:18:11.310Z,100909.75
2022-11-16T01:18:23.903Z,100907.94
2022-11-16T01:18:37.215Z,100907.94
2022-11-16T01:18:51.137Z,100908.78
2022-11-16T01:19:04.638Z,100914.25
2022-11-16T01:19:17.516Z,100907.94
2022-11-16T01:19:30.526Z,100911.44
2022-11-16T01:19:44.197Z,100912.31
2022-11-16T01:19:56.770Z,100915.00
2022-11-16T01:20:13.551Z,100903.47
2022-11-16T01:20:28.217Z,100907.00
2022-11-16T01:20:41.333Z,100906.03
2022-11-16T01:20:54.387Z,100911.34
2022-11-16T01:21:07.646Z,100903.38
2022-11-16T01:21:22.323Z,100900.69
2022-11-16T01:21:35.069Z,100904.97
2022-11-16T01:21:47.795Z,100899.75
2022-11-16T01:22:00.951Z,100905.81
2022-11-16T01:22:13.593Z,100905.81
2022-11-16T01:22:27.345Z,100901.44
2022-11-16T01:22:40.534Z,100902.19
2022-11-16T01:22:53.656Z,100899.53
2022-11-16T01:23:06.230Z,100906.56
2022-11-16T01:23:18.864Z,100901.22
2022-11-16T01:23:31.431Z,100901.13
2022-11-16T01:23:44.302Z,100897.63
2022-11-16T01:23:57.264Z,100902.94
2022-11-16T01:24:10.848Z,100902.94
2022-11-16T01:24:24.829Z,100899.44
2022-11-16T01:24:37.464Z,100897.63
2022-11-16T01:24:50.051Z,100894.97
2022-11-16T01:25:03.102Z,100900.28
2022-11-16T01:25:16.511Z,100899.53
2022-11-16T01:25:29.088Z,100893.34
2022-11-16T01:25:41.641Z,100897.63
2022-11-16T01:25:57.694Z,100897.63
2022-11-16T01:26:10.334Z,100895.81
2022-11-16T01:26:23.027Z,100892.38
2022-11-16T01:26:35.580Z,100893.22
2022-11-16T01:26:48.192Z,100897.63
2022-11-16T01:27:01.858Z,100893.13
2022-11-16T01:27:15.828Z,100896.78
2022-11-16T01:27:29.079Z,100888.78
2022-11-16T01:27:43.076Z,100894.13
2022-11-16T01:27:55.934Z,100890.56
2022-11-16T01:28:08.549Z,100886.97
2022-11-16T01:28:21.118Z,100893.97
2022-11-16T01:28:35.003Z,100891.44
2022-11-16T01:28:47.761Z,100891.31
2022-11-16T01:29:00.458Z,100883.31
2022-11-16T01:29:13.128Z,100888.66
2022-11-16T01:29:26.738Z,100887.72
2022-11-16T01:29:39.364Z,100887.72
2022-11-16T01:29:52.959Z,100887.72
2022-11-16T01:30:07.607Z,100890.38
2022-11-16T01:30:20.277Z,100893.88
2022-11-16T01:30:32.826Z,100895.72
2022-11-16T01:30:48.291Z,100885.91
2022-11-16T01:31:01.189Z,100885.81
2022-11-16T01:31:14.089Z,100893.78
2022-11-16T01:31:27.727Z,100886.75
2022-11-16T01:31:40.325Z,100886.66
2022-11-16T01:31:52.897Z,100885.81
2022-11-16T01:32:06.096Z,100893.66
2022-11-16T01:32:18.809Z,100891.88
2022-11-16T01:32:31.672Z,100891.00
2022-11-16T01:32:45.312Z,100894.53
2022-11-16T01:32:57.918Z,100897.09
2022-11-16T01:33:10.562Z,100891.00
2022-11-16T01:33:23.255Z,100903.28
2022-11-16T01:33:35.984Z,100897.97
2022-11-16T01:33:48.573Z,100896.25
2022-11-16T01:34:01.161Z,100898.81
2022-11-16T01:34:14.812Z,100898.81
2022-11-16T01:34:27.447Z,100892.63
2022-11-16T01:34:40.040Z,100897.97
2022-11-16T01:34:52.604Z,100892.63
2022-11-16T01:35:06.349Z,100891.66
2022-11-16T01:35:19.420Z,100899.66
2022-11-16T01:35:32.023Z,100893.47
2022-11-16T01:35:44.618Z,100897.00
2022-11-16T01:35:58.250Z,100891.66
2022-11-16T01:36:14.716Z,100894.31
2022-11-16T01:36:27.564Z,100884.63
2022-11-16T01:36:40.213Z,100886.31
2022-11-16T01:36:52.931Z,100887.31
2022-11-16T01:37:05.808Z,100888.06
2022-11-16T01:37:19.148Z,100889.00
2022-11-16T01:37:32.561Z,100887.31
2022-11-16T01:37:46.548Z,100884.50
2022-11-16T01:37:59.109Z,100881.97
2022-11-16T01:38:11.910Z,100881.97
2022-11-16T01:38:29.619Z,100874.81
2022-11-16T01:38:43.151Z,100873.00
2022-11-16T01:38:55.726Z,100873.00
2022-11-16T01:39:09.395Z,100873.00
2022-11-16T01:39:22.111Z,100867.69
2022-11-16T01:39:34.816Z,100873.00
2022-11-16T01:39:49.019Z,100865.97
2022-11-16T01:40:01.707Z,100863.31
2022-11-16T01:40:14.528Z,100872.16
2022-11-16T01:40:28.276Z,100873.97
2022-11-16T01:40:41.100Z,100866.06
2022-11-16T01:40:53.699Z,100864.25
2022-11-16T01:41:07.566Z,100865.97
2022-11-16T01:41:22.128Z,100860.66
2022-11-16T01:41:34.966Z,100867.78
2022-11-16T01:41:47.992Z,100859.78
2022-11-16T01:42:00.566Z,100864.25
2022-11-16T01:42:18.664Z,100862.34
2022-11-16T01:42:33.549Z,100860.66
2022-11-16T01:42:46.145Z,100858.00
2022-11-16T01:42:58.734Z,100864.25
2022-11-16T01:43:16.170Z,100859.78
2022-11-16T01:43:29.090Z,100861.59
2022-11-16T01:43:54.882Z,100858.94
2022-11-16T01:44:46.742Z,100858.00
2022-11-16T01:45:07.871Z,100862.56
2022-11-16T01:45:26.094Z,100858.09
2022-11-16T01:45:41.182Z,100860.75
2022-11-16T01:45:53.863Z,100857.25
2022-11-16T01:46:07.446Z,100863.41
2022-11-16T01:46:20.526Z,100859.16
2022-11-16T01:46:33.511Z,100858.31
2022-11-16T01:46:46.037Z,100860.97
2022-11-16T01:46:58.914Z,100861.06
2022-11-16T01:47:13.516Z,100863.75
2022-11-16T01:47:26.210Z,100856.59
2022-11-16T01:47:39.749Z,100857.44
2022-11-16T01:47:54.483Z,100861.06
2022-11-16T01:48:08.264Z,100855.75
2022-11-16T01:48:25.196Z,100855.75
2022-11-16T01:48:38.403Z,100857.56
2022-11-16T01:48:54.786Z,100869.16
2022-11-16T01:49:12.258Z,100862.13
2022-11-16T01:49:27.594Z,100859.34
2022-11-16T01:49:44.328Z,100859.34
2022-11-16T01:50:01.829Z,100869.16
2022-11-16T01:50:17.041Z,100858.50
2022-11-16T01:50:30.775Z,100861.16
2022-11-16T01:50:45.385Z,100854.03
2022-11-16T01:50:58.358Z,100857.66
2022-11-16T01:51:11.274Z,100857.66
2022-11-16T01:51:24.667Z,100854.03
2022-11-16T01:51:38.212Z,100855.75
2022-11-16T01:51:54.725Z,100854.03
2022-11-16T01:52:11.440Z,100855.00
2022-11-16T01:52:30.514Z,100855.00
2022-11-16T01:52:47.831Z,100858.59
2022-11-16T01:53:04.080Z,100855.94
2022-11-16T01:53:16.914Z,100855.94
2022-11-16T01:53:29.512Z,100855.94
2022-11-16T01:53:42.242Z,100855.94
2022-11-16T01:53:55.523Z,100855.94
2022-11-16T01:54:13.349Z,100857.66
2022-11-16T01:54:27.512Z,100857.66
2022-11-16T01:54:43.921Z,100863.00
2022-11-16T01:54:56.590Z,100855.00
2022-11-16T01:55:11.146Z,100859.34
2022-11-16T01:55:25.176Z,100854.91
2022-11-16T01:55:40.350Z,100863.00
2022-11-16T01:55:54.421Z,100859.34
2022-11-16T01:56:08.378Z,100862.88
2022-11-16T01:56:21.779Z,100857.56
2022-11-16T01:56:36.757Z,100859.25
2022-11-16T01:56:52.954Z,100865.44
2022-11-16T01:57:09.408Z,100861.06
2022-11-16T01:57:26.177Z,100852.22
2022-11-16T01:57:43.564Z,100861.91
2022-11-16T01:57:56.787Z,100866.31
2022-11-16T01:58:12.375Z,100859.25
2022-11-16T01:58:26.370Z,100864.50
2022-11-16T01:58:39.118Z,100859.25
2022-11-16T01:58:52.332Z,100858.31
2022-11-16T01:59:05.786Z,100860.84
2022-11-16T01:59:19.889Z,100856.38
2022-11-16T01:59:32.975Z,100867.03
2022-11-16T01:59:48.934Z,100861.69
2022-11-16T02:00:04.768Z,100860.00
2022-11-16T02:00:18.444Z,100862.56
2022-11-16T02:00:31.062Z,100865.22
2022-11-16T02:00:43.688Z,100859.91
2022-11-16T02:00:56.301Z,100857.25
2022-11-16T02:01:09.910Z,100852.75
2022-11-16T02:01:22.554Z,100856.25
2022-11-16T02:01:35.187Z,100857.25
2022-11-16T02:01:47.779Z,100854.56
2022-11-16T02:02:01.244Z,100850.09
2022-11-16T02:02:13.855Z,100849.13
2022-11-16T02:02:26.546Z,100858.94
2022-11-16T02:02:40.127Z,100858.09
2022-11-16T02:02:52.804Z,100854.44
2022-11-16T02:03:05.380Z,100857.13
2022-11-16T02:03:18.853Z,100850.94
2022-11-16T02:03:31.477Z,100854.44
2022-11-16T02:03:45.085Z,100854.34
2022-11-16T02:03:57.680Z,100853.59
2022-11-16T02:04:11.067Z,100857.00
2022-11-16T02:04:23.650Z,100853.50
2022-11-16T02:04:36.238Z,100854.44
2022-11-16T02:04:51.788Z,100849.13
2022-11-16T02:05:06.226Z,100857.88
2022-11-16T02:05:23.091Z,100851.78
2022-11-16T02:05:46.923Z,100857.00
2022-11-16T02:06:23.052Z,100851.59
2022-11-16T02:06:52.545Z,100848.28
2022-11-16T02:07:17.820Z,100858.84
2022-11-16T02:08:12.136Z,100850.94
2022-11-16T02:09:00.122Z,100850.84
2022-11-16T02:09:50.082Z,100850.75
2022-11-16T02:10:14.370Z,100849.78
2022-11-16T02:10:51.604Z,100849.78
2022-11-16T02:11:18.620Z,100852.44
2022-11-16T02:11:59.840Z,100848.81
2022-11-16T02:12:31.107Z,100847.84
2022-11-16T02:13:00.734Z,100853.19
2022-11-16T02:13:32.025Z,100843.50
2022-11-16T02:13:53.688Z,100844.22
2022-11-16T02:14:20.526Z,100845.19
2022-11-16T02:14:46.442Z,100848.59
2022-11-16T02:15:10.746Z,100854.88
2022-11-16T02:15:27.806Z,100844.22
2022-11-16T02:15:43.654Z,100843.28
2022-11-16T02:16:02.069Z,100846.03
2022-11-16T02:16:26.218Z,100839.75
2022-11-16T02:16:48.355Z,100845.09
2022-11-16T02:17:10.832Z,100844.97
2022-11-16T02:17:35.734Z,100847.63
2022-11-16T02:17:55.958Z,100845.84
2022-11-16T02:18:20.453Z,100849.34
2022-11-16T02:18:38.713Z,100852.97
2022-11-16T02:19:02.047Z,100844.03
2022-11-16T02:19:36.700Z,100844.03
2022-11-16T02:20:15.818Z,100844.03
2022-11-16T02:21:02.138Z,100844.03
2022-11-16T02:21:31.961Z,100837.72
2022-11-16T02:21:51.416Z,100842.09
2022-11-16T02:22:14.145Z,100837.72
2022-11-16T02:22:46.048Z,100840.38
2022-11-16T02:23:26.916Z,100840.38
2022-11-16T02:24:15.765Z,100836.03
2022-11-16T02:24:45.945Z,100839.44
2022-11-16T02:25:03.867Z,100844.03
2022-11-16T02:25:23.868Z,100835.06
2022-11-16T02:25:46.999Z,100837.72
2022-11-16T02:26:19.919Z,100846.59
2022-11-16T02:26:56.117Z,100843.03
2022-11-16T02:27:54.042Z,100841.25
2022-11-16T02:28:27.175Z,100835.06
2022-11-16T02:28:49.151Z,100838.69
2022-11-16T02:29:20.977Z,100832.63
2022-11-16T02:29:38.140Z,100838.69
2022-11-16T02:29:53.438Z,100833.34
2022-11-16T02:30:08.989Z,100836.97
2022-11-16T02:30:22.453Z,100836.97
2022-11-16T02:30:40.573Z,100840.50
2022-11-16T02:30:57.396Z,100844.03
2022-11-16T02:31:16.805Z,100836.97
2022-11-16T02:31:36.514Z,100840.50
2022-11-16T02:31:56.935Z,100836.97
2022-11-16T02:32:14.759Z,100832.50
2022-11-16T02:32:31.789Z,100837.84
2022-11-16T02:32:48.293Z,100836.97
2022-11-16T02:33:04.766Z,100836.13
2022-11-16T02:33:22.234Z,100835.19
2022-11-16T02:33:40.113Z,100838.78
2022-11-16T02:33:56.035Z,100830.78
2022-11-16T02:34:11.810Z,100840.59
2022-11-16T02:34:27.301Z,100828.13
2022-11-16T02:34:42.728Z,100842.28
2022-11-16T02:35:03.495Z,100832.50
2022-11-16T02:35:22.459Z,100834.31
2022-11-16T02:35:40.657Z,100839.63
2022-11-16T02:35:56.933Z,100835.19
2022-11-16T02:36:13.027Z,100831.63
2022-11-16T02:36:26.301Z,100832.50
2022-11-16T02:36:42.192Z,100827.38
2022-11-16T02:36:57.377Z,100827.28
2022-11-16T02:37:13.525Z,100828.97
2022-11-16T02:37:28.671Z,100829.94
2022-11-16T02:37:47.960Z,100831.63
2022-11-16T02:38:05.824Z,100826.31
2022-11-16T02:38:23.060Z,100831.63
2022-11-16T02:38:41.559Z,100831.63
2022-11-16T02:38:58.022Z,100834.31
2022-11-16T02:39:14.745Z,100832.50
2022-11-16T02:39:31.957Z,100829.94
2022-11-16T02:39:47.440Z,100834.31
2022-11-16T02:40:03.414Z,100829.94
2022-11-16T02:40:18.767Z,100833.56
2022-11-16T02:40:34.022Z,100829.94
2022-11-16T02:40:50.786Z,100827.28
2022-11-16T02:41:08.428Z,100828.97
2022-11-16T02:41:24.411Z,100830.78
2022-11-16T02:41:41.565Z,100833.34
2022-11-16T02:41:57.706Z,100833.34
2022-11-16T02:42:15.959Z,100832.50
2022-11-16T02:42:32.931Z,100830.69
2022-11-16T02:42:51.179Z,100831.53
2022-11-16T02:43:07.654Z,100834.22
2022-11-16T02:43:26.463Z,100831.53
2022-11-16T02:43:43.986Z,100834.22
2022-11-16T02:44:02.606Z,100829.72
2022-11-16T02:44:21.037Z,100828.03
2022-11-16T02:44:36.369Z,100828.88
2022-11-16T02:44:51.753Z,100834.22
2022-11-16T02:45:09.138Z,100830.69
2022-11-16T02:45:25.079Z,100835.06
2022-11-16T02:45:41.914Z,100827.06
2022-11-16T02:45:57.182Z,100831.44
2022-11-16T02:46:13.521Z,100824.38
2022-11-16T02:46:29.399Z,100830.59
2022-11-16T02:46:46.866Z,100829.72
2022-11-16T02:47:03.712Z,100829.72
2022-11-16T02:47:20.995Z,100830.47
2022-11-16T02:47:35.503Z,100828.78
2022-11-16T02:47:50.758Z,100830.59
2022-11-16T02:48:08.482Z,100830.59
2022-11-16T02:48:25.988Z,100826.22
2022-11-16T02:48:43.117Z,100826.13
2022-11-16T02:49:00.303Z,100826.13
2022-11-16T02:49:15.825Z,100833.13
2022-11-16T02:49:30.587Z,100827.94
2022-11-16T02:49:49.005Z,100831.44
2022-11-16T02:50:05.216Z,100825.38
2022-11-16T02:50:21.349Z,100822.69
2022-11-16T02:50:35.818Z,100824.63
2022-11-16T02:50:52.784Z,100818.31
2022-11-16T02:51:08.088Z,100820.97
2022-11-16T02:51:21.954Z,100820.97
2022-11-16T02:51:37.726Z,100818.31
2022-11-16T02:51:52.336Z,100819.28
2022-11-16T02:52:05.209Z,100820.22
2022-11-16T02:52:19.250Z,100821.19
2022-11-16T02:52:31.831Z,100817.56
2022-11-16T02:52:45.936Z,100814.91
2022-11-16T02:52:58.524Z,100811.38